Startpagina
METAR-TAF:

METAR-TAF

Vliegvelden :

Teheran, Iran

Teheran Mehrabad International Airport

breedte: 35-41N, lengte: 051-21E, hoogte: 1204 m

Actueel weer

Dit bericht is 11 minuten geleden gemaakt, om 15:30 UTC
Wind 4 kt uit het zuiden
Temperatuur 7°C
Vochtigheid 36%
Druk 1020 hPa
Zicht 10 km of meer
geen wolken onder 1500 m en geen cumulonimbus

METAR: OIII 151530Z 17004KT CAVOK 07/M07 Q1020 A3013

Tijdstip: 19:11 (15:41 UTC)

Verwachting

Dit bericht is 4 uur en het 41 minuten geleden gemaakt, om 11:00 UTC
Verwachting geldig van 15 om 12 UTC tot 16 om 18 UTC
Wind 10 kt uit het zuidzuidwesten
Zicht: 6000 m
Wijzigt naar
van 15 om 18 UTC tot 15 om 20 UTC
Wind 8 kt uit het noordwesten
Weinig wolken op 3500 ft, Stapelwolken.
Verspreide wolken op 4000 ft
Gebroken wolken op 10000 ft
Wijzigt naar
van 16 om 03 UTC tot 16 om 05 UTC
Wind 10 kt uit het zuidzuidwesten
Zicht: 6000 m

TAF: OIII 151100Z 1512/1618 20005MPS 6000 NSC BECMG 1518/1520 32004MPS FEW035TCU SCT040 BKN100 BECMG 1603/1605 20005MPS 6000 NSC

Waarnemingen en weersverwachtingen van meer dan 4000 vliegvelden (METAR en TAF).

De beschikbare stations zijn de gele en rode punten op de kaart.

Ga met uw muis naar het station om de naam te zien.

Klik dan om waarnemingen en weersverwachtingen te zien.

kaart wijzigen: klik op de groene knoppen met een zwart kruis om in te zoomen, op de groene knop met een streepje om uit te zoomen of op de groene pijlen voor aangrenzende kaarten.


METAR-TAF: